Rechercher aéroport 
image banner adimage banner adimage banner ad
image banner ad

KOVE - Oroville Muni

Situé à Oroville, United States

ICAO - OVE, IATA -

Données fournies par Airmate  

Information générale

Coordonnées: N39°29'16" W121°37'19"
Élévation : 194 feet MSL.
Variation magnétique : 16° East
Voir autres Aéroports à California

Données opérationnelles

Special qualification required
Heure actuelle UTC:
Heure actuelle locale:
Météo
METAR: KOVE 262353Z AUTO 17011KT 10SM CLR 32/09 A2982 RMK AO2 SLP097 T03170089 10322 20272 56010
Voir NOTAMs / SUP AIP / TFR affectant cet aéroport [VIEW]
Fréquences de communication: [VIEW]

Pistes:

Identifiant RWYQFULongueur (ft)Largeur (ft)SurfaceLDA (ft)
0233°6020100ASPH
13144°3540100ASPH
20213°6020100ASPH
31324°3540100ASPH

Coordonnées de l'aéroport

Adresse: Oroville United States

Autres services d'aviation

Écoles de pilotage

Skyhawk Flight School

Skyhawk Flight School

Table Mountain Aviation

Table Mountain Aviation
tma@mynvw.com+1(530)533-1313

Vue satellite de KOVE